createdAt,value
2023-03-17T00:00:15.961Z,5.38
2023-03-17T00:02:43.683Z,4.65
2023-03-17T00:05:31.160Z,4.03
2023-03-17T00:08:01.223Z,5.05
2023-03-17T00:10:29.032Z,4.47
2023-03-17T00:12:56.469Z,4.43
2023-03-17T00:15:24.656Z,4.53
2023-03-17T00:17:51.765Z,4.70
2023-03-17T00:20:23.784Z,4.55
2023-03-17T00:22:51.141Z,4.35
2023-03-17T00:25:29.232Z,4.68
2023-03-17T00:27:58.263Z,4.25
2023-03-17T00:30:27.173Z,4.47
2023-03-17T00:32:58.709Z,4.13
2023-03-17T00:35:29.898Z,4.38
2023-03-17T00:37:58.356Z,5.07
2023-03-17T00:40:30.820Z,4.82
2023-03-17T00:42:59.976Z,4.68
2023-03-17T00:45:28.075Z,4.65
2023-03-17T00:47:56.190Z,4.43
2023-03-17T00:50:25.438Z,4.15
2023-03-17T00:52:54.309Z,4.53
2023-03-17T00:55:22.316Z,4.18
2023-03-17T00:57:49.993Z,3.95
2023-03-17T01:00:25.424Z,4.00
2023-03-17T01:02:56.496Z,4.10
2023-03-17T01:05:24.714Z,4.10
2023-03-17T01:07:53.944Z,4.15
2023-03-17T01:10:26.549Z,4.18
2023-03-17T01:12:54.708Z,4.38
2023-03-17T01:15:22.668Z,3.95
2023-03-17T01:17:50.703Z,4.50
2023-03-17T01:20:25.423Z,4.07
2023-03-17T01:22:52.644Z,4.38
2023-03-17T01:25:20.099Z,4.32
2023-03-17T01:27:47.799Z,3.95
2023-03-17T01:30:15.843Z,3.97
2023-03-17T01:32:43.642Z,4.53
2023-03-17T01:35:11.522Z,4.80
2023-03-17T01:37:38.727Z,4.05
2023-03-17T01:40:09.708Z,4.20
2023-03-17T01:42:37.165Z,3.95
2023-03-17T01:45:07.150Z,4.15
2023-03-17T01:47:34.613Z,4.00
2023-03-17T01:50:06.221Z,4.35
2023-03-17T01:52:34.379Z,4.20
2023-03-17T01:55:04.463Z,4.53
2023-03-17T01:57:38.079Z,4.07
2023-03-17T02:00:08.060Z,4.55
2023-03-17T02:02:37.712Z,4.25
2023-03-17T02:05:06.441Z,4.00
2023-03-17T02:07:34.888Z,4.72
2023-03-17T02:10:04.002Z,4.00
2023-03-17T02:12:31.319Z,4.57
2023-03-17T02:14:58.652Z,3.90
2023-03-17T02:17:27.231Z,4.00
2023-03-17T02:19:54.995Z,4.18
2023-03-17T02:22:22.606Z,4.03
2023-03-17T02:24:53.079Z,4.35
2023-03-17T02:27:23.051Z,4.53
2023-03-17T02:29:50.856Z,4.32
2023-03-17T02:32:19.264Z,3.67
2023-03-17T02:34:47.617Z,4.50
2023-03-17T02:37:15.970Z,4.20
2023-03-17T02:39:43.091Z,4.10
2023-03-17T02:42:10.685Z,4.25
2023-03-17T02:44:38.304Z,3.97
2023-03-17T02:47:07.389Z,3.97
2023-03-17T02:49:35.395Z,4.10
2023-03-17T02:52:02.652Z,3.97
2023-03-17T02:54:29.797Z,4.10
2023-03-17T02:56:56.938Z,4.50
2023-03-17T02:59:24.127Z,4.53
2023-03-17T03:01:51.295Z,4.00
2023-03-17T03:04:19.209Z,4.22
2023-03-17T03:06:47.657Z,3.97
2023-03-17T03:09:15.457Z,4.18
2023-03-17T03:11:42.973Z,3.80
2023-03-17T03:14:10.375Z,4.07
2023-03-17T03:16:38.597Z,4.30
2023-03-17T03:19:05.967Z,4.30
2023-03-17T03:21:33.322Z,4.13
2023-03-17T03:24:00.718Z,4.63
2023-03-17T03:26:29.302Z,4.38
2023-03-17T03:28:58.465Z,4.13
2023-03-17T03:31:26.161Z,3.92
2023-03-17T03:33:53.562Z,4.68
2023-03-17T03:36:20.830Z,3.90
2023-03-17T03:38:47.983Z,3.75
2023-03-17T03:41:15.127Z,4.65
2023-03-17T03:43:42.322Z,4.22
2023-03-17T03:46:09.485Z,3.80
2023-03-17T03:48:36.921Z,3.78
2023-03-17T03:51:04.149Z,4.28
2023-03-17T03:53:31.695Z,3.95
2023-03-17T03:55:58.898Z,3.90
2023-03-17T03:58:26.048Z,3.95
2023-03-17T04:00:53.208Z,3.58
2023-03-17T04:03:20.667Z,3.67
2023-03-17T04:05:47.845Z,4.10
2023-03-17T04:08:15.040Z,3.80
2023-03-17T04:10:42.757Z,4.50
2023-03-17T04:13:09.922Z,3.97
2023-03-17T04:15:37.804Z,3.50
2023-03-17T04:18:05.345Z,3.90
2023-03-17T04:20:33.072Z,3.88
2023-03-17T04:23:00.530Z,3.70
2023-03-17T04:25:27.832Z,3.88
2023-03-17T04:27:55.068Z,3.90
2023-03-17T04:30:22.175Z,3.60
2023-03-17T04:32:49.481Z,3.88
2023-03-17T04:35:18.340Z,3.70
2023-03-17T04:37:45.921Z,3.50
2023-03-17T04:40:14.008Z,3.72
2023-03-17T04:42:41.600Z,3.60
2023-03-17T04:45:09.792Z,3.60
2023-03-17T04:47:37.328Z,3.53
2023-03-17T04:50:05.381Z,3.95
2023-03-17T04:52:32.567Z,3.40
2023-03-17T04:54:59.816Z,3.45
2023-03-17T04:57:27.318Z,4.38
2023-03-17T04:59:54.501Z,4.82
2023-03-17T05:02:21.647Z,4.13
2023-03-17T05:04:48.976Z,4.45
2023-03-17T05:07:16.128Z,4.43
2023-03-17T05:09:43.260Z,4.18
2023-03-17T05:12:11.601Z,4.72
2023-03-17T05:14:38.862Z,4.80
2023-03-17T05:17:06.288Z,4.70
2023-03-17T05:19:33.491Z,5.00
2023-03-17T05:22:00.631Z,5.15
2023-03-17T05:24:27.787Z,4.85
2023-03-17T05:26:54.918Z,4.72
2023-03-17T05:29:22.059Z,4.55
2023-03-17T05:31:49.195Z,4.47
2023-03-17T05:34:17.454Z,4.50
2023-03-17T05:36:44.762Z,4.78
2023-03-17T05:39:14.452Z,3.83
2023-03-17T05:41:42.324Z,3.92
2023-03-17T05:44:10.406Z,3.97
2023-03-17T05:46:37.692Z,3.85
2023-03-17T05:49:04.966Z,3.88
2023-03-17T05:51:32.112Z,3.90
2023-03-17T05:53:59.293Z,3.80
2023-03-17T05:56:33.318Z,3.88
2023-03-17T05:59:03.520Z,4.60
2023-03-17T06:01:31.428Z,4.75
2023-03-17T06:03:58.614Z,4.63
2023-03-17T06:06:25.824Z,4.10
2023-03-17T06:08:52.986Z,4.40
2023-03-17T06:11:21.560Z,4.13
2023-03-17T06:13:48.786Z,3.67
2023-03-17T06:16:16.607Z,4.40
2023-03-17T06:18:44.605Z,4.05
2023-03-17T06:21:11.889Z,3.70
2023-03-17T06:23:39.137Z,3.88
2023-03-17T06:26:07.134Z,4.20
2023-03-17T06:28:34.318Z,3.95
2023-03-17T06:31:01.619Z,4.53
2023-03-17T06:33:28.883Z,4.00
2023-03-17T06:35:58.589Z,3.72
2023-03-17T06:38:25.764Z,3.70
2023-03-17T06:40:53.130Z,3.47
2023-03-17T06:43:22.113Z,3.42
2023-03-17T06:45:50.437Z,3.70
2023-03-17T06:48:17.894Z,3.53
2023-03-17T06:50:47.461Z,3.50
2023-03-17T06:53:14.627Z,3.17
2023-03-17T06:55:42.137Z,3.22
2023-03-17T06:58:10.548Z,3.60
2023-03-17T07:00:41.262Z,3.60
2023-03-17T07:03:09.952Z,3.70
2023-03-17T07:05:38.117Z,3.40
2023-03-17T07:08:05.239Z,3.63
2023-03-17T07:10:33.290Z,3.10
2023-03-17T07:13:00.484Z,3.00
2023-03-17T07:15:27.643Z,3.17
2023-03-17T07:17:54.774Z,2.88
2023-03-17T07:20:22.028Z,2.50
2023-03-17T07:22:49.184Z,2.75
2023-03-17T07:25:16.380Z,2.55
2023-03-17T07:27:43.538Z,2.63
2023-03-17T07:30:11.053Z,2.90
2023-03-17T07:32:38.220Z,2.78
2023-03-17T07:35:05.698Z,2.80
2023-03-17T07:37:32.890Z,3.33
2023-03-17T07:40:00.018Z,2.50
2023-03-17T07:42:29.128Z,2.40
2023-03-17T07:44:56.629Z,2.70
2023-03-17T07:47:23.905Z,2.63
2023-03-17T07:49:51.089Z,2.53
2023-03-17T07:52:18.268Z,2.55
2023-03-17T07:54:45.672Z,2.50
2023-03-17T07:57:13.274Z,2.80
2023-03-17T07:59:41.645Z,2.80
2023-03-17T08:02:12.008Z,2.60
2023-03-17T08:04:39.306Z,2.72
2023-03-17T08:07:06.480Z,2.70
2023-03-17T08:09:33.687Z,2.80
2023-03-17T08:12:01.183Z,2.17
2023-03-17T08:14:28.328Z,2.58
2023-03-17T08:16:55.857Z,2.90
2023-03-17T08:19:24.249Z,3.17
2023-03-17T08:21:51.511Z,2.40
2023-03-17T08:24:18.654Z,2.35
2023-03-17T08:26:49.196Z,2.63
2023-03-17T08:29:16.558Z,2.22
2023-03-17T08:31:46.427Z,2.70
2023-03-17T08:34:14.056Z,2.70
2023-03-17T08:36:41.474Z,3.15
2023-03-17T08:39:10.499Z,2.22
2023-03-17T08:41:38.415Z,2.70
2023-03-17T08:44:05.653Z,2.60
2023-03-17T08:46:33.363Z,2.30
2023-03-17T08:49:00.959Z,2.47
2023-03-17T08:51:30.275Z,2.40
2023-03-17T08:53:57.693Z,2.63
2023-03-17T08:56:24.881Z,2.38
2023-03-17T08:58:52.089Z,2.70
2023-03-17T09:01:21.181Z,2.83
2023-03-17T09:03:49.570Z,2.30
2023-03-17T09:06:16.879Z,2.40
2023-03-17T09:08:45.163Z,2.92
2023-03-17T09:11:14.096Z,2.92
2023-03-17T09:13:41.535Z,2.35
2023-03-17T09:16:11.843Z,2.60
2023-03-17T09:18:39.136Z,2.60
2023-03-17T09:21:06.501Z,2.67
2023-03-17T09:23:33.800Z,2.30
2023-03-17T09:26:02.254Z,2.20
2023-03-17T09:28:29.460Z,2.10
2023-03-17T09:31:01.308Z,2.05
2023-03-17T09:33:28.826Z,2.17
2023-03-17T09:35:59.210Z,2.38
2023-03-17T09:38:27.613Z,2.20
2023-03-17T09:40:59.468Z,1.92
2023-03-17T09:43:32.693Z,2.13
2023-03-17T09:46:05.788Z,2.03
2023-03-17T09:48:52.655Z,1.90
2023-03-17T09:51:20.232Z,1.95
2023-03-17T09:53:55.179Z,1.70
2023-03-17T09:56:23.232Z,1.80
2023-03-17T09:58:53.524Z,1.70
2023-03-17T10:01:20.956Z,1.95
2023-03-17T10:03:51.528Z,1.60
2023-03-17T10:06:24.779Z,1.80
2023-03-17T10:08:56.464Z,1.80
2023-03-17T10:11:42.684Z,1.80
2023-03-17T10:14:23.504Z,2.38
2023-03-17T10:16:54.741Z,2.08
2023-03-17T10:19:27.832Z,1.80
2023-03-17T10:21:59.015Z,2.08
2023-03-17T10:24:28.542Z,1.70
2023-03-17T10:26:57.954Z,1.55
2023-03-17T10:29:25.372Z,1.60
2023-03-17T10:31:56.263Z,1.73
2023-03-17T10:34:25.547Z,2.50
2023-03-17T10:36:56.915Z,4.82
2023-03-17T10:39:24.904Z,2.17
2023-03-17T10:42:00.413Z,4.13
2023-03-17T10:44:42.054Z,1.70
2023-03-17T10:47:21.109Z,1.88
2023-03-17T10:49:48.308Z,1.77
2023-03-17T10:52:27.888Z,1.80
2023-03-17T10:54:55.363Z,1.67
2023-03-17T10:57:22.944Z,1.70
2023-03-17T10:59:53.421Z,1.45
2023-03-17T11:02:23.881Z,1.60
2023-03-17T11:04:54.523Z,1.70
2023-03-17T11:07:27.663Z,1.55
2023-03-17T11:09:58.363Z,1.52
2023-03-17T11:12:45.902Z,1.67
2023-03-17T11:15:17.802Z,1.50
2023-03-17T11:17:51.185Z,1.80
2023-03-17T11:20:37.205Z,1.70
2023-03-17T11:23:23.667Z,1.50
2023-03-17T11:25:59.415Z,2.00
2023-03-17T11:28:29.332Z,2.10
2023-03-17T11:30:59.673Z,2.20
2023-03-17T11:33:34.128Z,2.20
2023-03-17T11:36:04.659Z,2.97
2023-03-17T11:38:33.831Z,2.58
2023-03-17T11:41:19.383Z,2.90
2023-03-17T11:44:06.250Z,2.50
2023-03-17T11:46:36.968Z,2.30
2023-03-17T11:49:14.578Z,2.22
2023-03-17T11:51:42.246Z,2.20
2023-03-17T11:54:12.526Z,2.70
2023-03-17T11:56:42.844Z,1.90
2023-03-17T11:59:33.316Z,1.27
2023-03-17T12:02:12.815Z,1.27
2023-03-17T12:04:49.154Z,1.33
2023-03-17T12:07:27.632Z,2.40
2023-03-17T12:09:55.372Z,1.90
2023-03-17T12:12:27.037Z,1.70
2023-03-17T12:14:54.790Z,1.55
2023-03-17T12:17:49.699Z,1.58
2023-03-17T12:20:19.300Z,1.50
2023-03-17T12:22:52.798Z,1.60
2023-03-17T12:25:25.665Z,1.73
2023-03-17T12:28:11.276Z,1.52
2023-03-17T12:30:48.489Z,1.92
2023-03-17T12:33:21.403Z,2.00
2023-03-17T12:35:48.909Z,2.28
2023-03-17T12:38:21.757Z,2.58
2023-03-17T12:41:07.884Z,2.55
2023-03-17T12:43:53.433Z,2.90
2023-03-17T12:46:23.647Z,2.75
2023-03-17T12:48:53.733Z,3.17
2023-03-17T12:51:33.391Z,2.72
2023-03-17T12:54:00.939Z,2.65
2023-03-17T12:56:29.538Z,3.33
2023-03-17T12:59:04.468Z,2.55
2023-03-17T13:01:33.441Z,3.55
2023-03-17T13:04:06.664Z,3.33
2023-03-17T13:06:45.674Z,2.90
2023-03-17T13:09:30.299Z,3.50
2023-03-17T13:11:59.427Z,3.13
2023-03-17T13:14:46.968Z,3.28
2023-03-17T13:17:17.532Z,3.47
2023-03-17T13:19:55.828Z,3.33
2023-03-17T13:22:23.005Z,3.35
2023-03-17T13:24:53.889Z,3.40
2023-03-17T13:27:32.951Z,3.30
2023-03-17T13:30:01.670Z,3.20
2023-03-17T13:32:29.471Z,3.60
2023-03-17T13:35:03.002Z,3.70
2023-03-17T13:37:32.131Z,3.35
2023-03-17T13:40:10.954Z,3.22
2023-03-17T13:42:38.291Z,3.40
2023-03-17T13:45:14.615Z,3.20
2023-03-17T13:47:42.969Z,3.78
2023-03-17T13:50:15.928Z,3.10
2023-03-17T13:52:50.398Z,3.22
2023-03-17T13:55:20.763Z,2.92
2023-03-17T13:57:58.810Z,3.40
2023-03-17T14:00:29.842Z,2.92
2023-03-17T14:03:01.435Z,3.35
2023-03-17T14:05:32.085Z,3.58
2023-03-17T14:08:01.728Z,3.25
2023-03-17T14:10:30.328Z,3.70
2023-03-17T14:13:00.980Z,3.58
2023-03-17T14:15:32.256Z,3.17
2023-03-17T14:18:11.191Z,2.88
2023-03-17T14:20:38.452Z,3.30
2023-03-17T14:23:06.289Z,3.42
2023-03-17T14:25:34.669Z,3.28
2023-03-17T14:28:05.532Z,3.60
2023-03-17T14:30:34.168Z,3.08
2023-03-17T14:33:01.525Z,3.22
2023-03-17T14:35:32.980Z,3.05
2023-03-17T14:38:01.286Z,3.05
2023-03-17T14:40:31.450Z,2.83
2023-03-17T14:42:58.805Z,2.85
2023-03-17T14:45:45.019Z,3.05
2023-03-17T14:48:14.618Z,3.03
2023-03-17T14:50:50.368Z,3.60
2023-03-17T14:53:18.233Z,3.50
2023-03-17T14:55:45.490Z,3.40
2023-03-17T14:58:25.277Z,3.38
2023-03-17T15:01:18.908Z,3.00
2023-03-17T15:06:21.421Z,3.42
2023-03-17T15:08:49.175Z,3.20
2023-03-17T15:11:37.725Z,2.83
2023-03-17T15:14:07.233Z,3.22
2023-03-17T15:16:36.263Z,3.00
2023-03-17T15:19:08.367Z,3.03
2023-03-17T15:21:40.373Z,3.42
2023-03-17T15:24:22.997Z,3.30
2023-03-17T15:26:50.200Z,3.20
2023-03-17T15:29:18.530Z,3.20
2023-03-17T15:31:45.717Z,3.38
2023-03-17T15:34:15.382Z,3.50
2023-03-17T15:36:44.158Z,4.13
2023-03-17T15:39:11.376Z,3.67
2023-03-17T15:41:38.542Z,3.40
2023-03-17T15:44:06.023Z,2.85
2023-03-17T15:46:33.817Z,3.20
2023-03-17T15:49:01.275Z,3.20
2023-03-17T15:51:28.450Z,3.38
2023-03-17T15:53:55.743Z,3.30
2023-03-17T15:56:22.960Z,3.50
2023-03-17T15:59:01.851Z,4.00
2023-03-17T16:01:30.022Z,2.75
2023-03-17T16:03:57.240Z,2.88
2023-03-17T16:06:24.788Z,2.78
2023-03-17T16:08:52.318Z,3.33
2023-03-17T16:11:31.471Z,2.95
2023-03-17T16:13:59.890Z,3.00
2023-03-17T16:16:30.284Z,2.97
2023-03-17T16:18:58.374Z,3.17
2023-03-17T16:21:25.746Z,2.70
2023-03-17T16:23:53.163Z,4.97
2023-03-17T16:26:20.330Z,3.20
2023-03-17T16:28:50.711Z,3.22
2023-03-17T16:31:19.369Z,3.08
2023-03-17T16:33:47.056Z,3.83
2023-03-17T16:36:15.509Z,3.15
2023-03-17T16:38:42.858Z,2.88
2023-03-17T16:41:15.673Z,3.03
2023-03-17T16:43:44.021Z,2.55
2023-03-17T16:46:12.101Z,3.00
2023-03-17T16:48:39.697Z,2.75
2023-03-17T16:51:06.866Z,3.17
2023-03-17T16:53:34.055Z,2.80
2023-03-17T16:56:01.197Z,2.70
2023-03-17T16:58:31.267Z,3.38
2023-03-17T17:01:01.315Z,2.80
2023-03-17T17:03:29.027Z,2.70
2023-03-17T17:05:56.573Z,2.80
2023-03-17T17:08:23.858Z,2.97
2023-03-17T17:10:51.721Z,3.38
2023-03-17T17:13:18.981Z,3.00
2023-03-17T17:15:46.481Z,2.50
2023-03-17T17:18:18.069Z,2.63
2023-03-17T17:20:45.972Z,3.08
2023-03-17T17:23:18.063Z,2.97
2023-03-17T17:25:45.383Z,2.95
2023-03-17T17:28:13.518Z,3.00
2023-03-17T17:30:45.013Z,3.22
2023-03-17T17:33:14.093Z,4.20
2023-03-17T17:35:41.894Z,4.50
2023-03-17T17:38:16.642Z,3.35
2023-03-17T17:40:43.916Z,4.15
2023-03-17T17:43:11.114Z,4.57
2023-03-17T17:45:38.451Z,3.60
2023-03-17T17:48:05.594Z,3.83
2023-03-17T17:50:33.635Z,3.80
2023-03-17T17:53:05.424Z,3.83
2023-03-17T17:55:35.532Z,3.97
2023-03-17T17:58:02.724Z,4.05
2023-03-17T18:00:30.697Z,3.97
2023-03-17T18:02:58.024Z,4.00
2023-03-17T18:05:25.193Z,3.88
2023-03-17T18:07:52.397Z,4.00
2023-03-17T18:10:24.068Z,3.95
2023-03-17T18:12:51.334Z,4.30
2023-03-17T18:15:18.823Z,3.95
2023-03-17T18:17:45.954Z,3.97
2023-03-17T18:20:14.655Z,4.10
2023-03-17T18:22:41.976Z,4.15
2023-03-17T18:25:09.941Z,4.47
2023-03-17T18:27:37.916Z,4.45
2023-03-17T18:30:07.265Z,4.30
2023-03-17T18:32:34.487Z,4.60
2023-03-17T18:35:04.094Z,4.07
2023-03-17T18:37:32.979Z,4.05
2023-03-17T18:40:13.234Z,4.45
2023-03-17T18:42:41.766Z,4.38
2023-03-17T18:45:09.917Z,5.13
2023-03-17T18:47:38.880Z,5.07
2023-03-17T18:50:08.177Z,4.97
2023-03-17T18:52:36.549Z,5.70
2023-03-17T18:55:04.233Z,5.40
2023-03-17T18:57:31.616Z,4.82
2023-03-17T18:59:58.759Z,4.05
2023-03-17T19:02:26.072Z,4.47
2023-03-17T19:04:53.238Z,4.78
2023-03-17T19:07:22.261Z,4.43
2023-03-17T19:09:49.548Z,4.70
2023-03-17T19:12:16.754Z,4.82
2023-03-17T19:14:43.984Z,4.53
2023-03-17T19:17:11.375Z,4.72
2023-03-17T19:19:38.683Z,4.97
2023-03-17T19:22:06.148Z,4.57
2023-03-17T19:24:37.579Z,5.13
2023-03-17T19:27:05.299Z,4.65
2023-03-17T19:29:33.406Z,4.63
2023-03-17T19:32:00.683Z,5.00
2023-03-17T19:34:27.911Z,5.05
2023-03-17T19:36:55.633Z,4.75
2023-03-17T19:39:23.006Z,5.03
2023-03-17T19:41:53.226Z,4.60
2023-03-17T19:44:21.294Z,4.93
2023-03-17T19:46:48.638Z,4.80
2023-03-17T19:49:16.512Z,4.35
2023-03-17T19:51:43.696Z,4.60
2023-03-17T19:54:11.735Z,5.13
2023-03-17T19:56:39.262Z,4.53
2023-03-17T19:59:07.410Z,4.78
2023-03-17T20:01:34.711Z,3.95
2023-03-17T20:04:02.002Z,4.70
2023-03-17T20:06:31.304Z,5.70
2023-03-17T20:08:58.616Z,6.38
2023-03-17T20:11:25.811Z,5.80
2023-03-17T20:13:52.948Z,5.47
2023-03-17T20:16:20.208Z,5.47
2023-03-17T20:18:47.410Z,6.10
2023-03-17T20:21:14.865Z,5.70
2023-03-17T20:23:42.096Z,6.53
2023-03-17T20:26:09.251Z,5.65
2023-03-17T20:28:36.904Z,7.10
2023-03-17T20:31:04.668Z,6.35
2023-03-17T20:33:33.474Z,6.80
2023-03-17T20:36:02.088Z,6.28
2023-03-17T20:38:30.967Z,6.28
2023-03-17T20:41:11.784Z,6.70
2023-03-17T20:43:39.234Z,5.50
2023-03-17T20:46:08.610Z,5.20
2023-03-17T20:48:37.097Z,5.63
2023-03-17T20:51:06.232Z,6.07
2023-03-17T20:53:34.338Z,5.60
2023-03-17T20:56:01.524Z,5.38
2023-03-17T20:58:28.993Z,5.57
2023-03-17T21:00:58.248Z,6.70
2023-03-17T21:03:25.771Z,5.32
2023-03-17T21:05:53.495Z,6.15
2023-03-17T21:08:21.087Z,6.38
2023-03-17T21:10:48.248Z,7.20
2023-03-17T21:13:17.773Z,6.57
2023-03-17T21:15:45.364Z,6.70
2023-03-17T21:18:13.532Z,6.90
2023-03-17T21:20:42.546Z,7.43
2023-03-17T21:23:10.644Z,7.88
2023-03-17T21:25:37.971Z,7.90
2023-03-17T21:28:05.488Z,7.05
2023-03-17T21:30:34.148Z,8.98
2023-03-17T21:33:01.794Z,8.98
2023-03-17T21:35:30.860Z,9.02
2023-03-17T21:37:58.209Z,9.80
2023-03-17T21:40:26.182Z,10.13
2023-03-17T21:42:54.214Z,13.43
2023-03-17T21:45:22.005Z,12.32
2023-03-17T21:47:49.385Z,11.20
2023-03-17T21:50:17.735Z,11.18
2023-03-17T21:52:45.502Z,11.48
2023-03-17T21:55:13.503Z,11.52
2023-03-17T21:57:40.727Z,10.55
2023-03-17T22:00:09.653Z,11.10
2023-03-17T22:02:37.104Z,10.93
2023-03-17T22:05:05.221Z,11.63
2023-03-17T22:07:32.936Z,11.52
2023-03-17T22:10:00.952Z,11.38
2023-03-17T22:12:28.711Z,11.68
2023-03-17T22:14:58.818Z,11.32
2023-03-17T22:17:26.007Z,10.77
2023-03-17T22:19:53.368Z,11.45
2023-03-17T22:22:21.169Z,10.35
2023-03-17T22:24:48.894Z,11.18
2023-03-17T22:27:16.866Z,10.27
2023-03-17T22:29:44.388Z,10.68
2023-03-17T22:32:11.828Z,9.90
2023-03-17T22:34:39.032Z,10.45
2023-03-17T22:37:07.160Z,10.77
2023-03-17T22:39:34.665Z,10.35
2023-03-17T22:42:02.174Z,10.10
2023-03-17T22:44:29.395Z,10.50
2023-03-17T22:46:56.974Z,9.85
2023-03-17T22:49:24.181Z,9.23
2023-03-17T22:51:51.967Z,8.93
2023-03-17T22:54:19.191Z,9.35
2023-03-17T22:56:46.442Z,8.63
2023-03-17T22:59:13.604Z,9.63
2023-03-17T23:01:40.904Z,9.35
2023-03-17T23:04:09.149Z,9.10
2023-03-17T23:06:36.732Z,9.48
2023-03-17T23:09:04.801Z,9.38
2023-03-17T23:11:32.025Z,8.65
2023-03-17T23:13:59.206Z,8.30
2023-03-17T23:16:27.170Z,7.97
2023-03-17T23:18:54.445Z,6.68
2023-03-17T23:21:29.249Z,7.63
2023-03-17T23:23:56.482Z,7.88
2023-03-17T23:26:24.003Z,7.80
2023-03-17T23:28:51.155Z,7.03
2023-03-17T23:31:19.491Z,6.88
2023-03-17T23:33:47.892Z,6.53
2023-03-17T23:36:15.957Z,6.60
2023-03-17T23:38:44.155Z,7.43
2023-03-17T23:41:12.796Z,6.25
2023-03-17T23:43:40.645Z,6.07
2023-03-17T23:46:08.427Z,6.07
2023-03-17T23:48:35.634Z,5.82
2023-03-17T23:51:03.449Z,6.05
2023-03-17T23:53:31.383Z,5.90
2023-03-17T23:55:58.913Z,5.43
2023-03-17T23:58:26.987Z,5.85
